x

Lahaina / West Maui Weather Station

5:45pm - Fri 11th Jul 2014 All times are HST. -10 hours from GMT.

  • Wind
    13mph, 21mph gusts
  • Air Temp 77°f
  • Sea Pressure 1014.9mb
  • Lahaina / West Maui
  • Lahaina / West Maui

More Historic Weather Station data

Upgrade to MSW Pro to gain access to the past 30 days of data for over 8000 Wavebouys and Weather Stations around the globe.

Join Pro

Comparision Forecast

View Surf forecast
   
Fri 07/11 5:45pm 13 21 mph 1014.9mb 77f
4:45pm 10
mph
1015.2mb 75f
3:50pm 14 20 mph 1015.2mb 79f
2:50pm 16 21 mph 1015.2mb 75f
1:45pm 14 22 mph 1015.6mb 79f
12:45pm 21 27 mph 1015.9mb 81f
11:45am 15 23 mph 1016.3mb 82f
10:45am 16 22 mph 1016.6mb 84f
9:45am 18 29 mph 1016.6mb 81f
8:45am 14 18 mph 1016.3mb 77f
7:45am 10
mph
1016.3mb 77f
6:45am 12
mph
1015.9mb 75f
6:04am 10 17 mph 1015.6mb 73f
Thu 07/10 5:45pm 15 28 mph 1015.2mb 81f
4:45pm 16 29 mph 1014.9mb 82f
3:45pm 14 28 mph 1015.2mb 84f
2:45pm 16 30 mph 1015.6mb 84f
1:45pm 18 35 mph 1015.6mb 86f
12:45pm 23 36 mph 1016.3mb 86f
11:45am 18 23 mph 1016.9mb 86f
10:45am 14 27 mph 1017.3mb 84f
9:45am 15 28 mph 1018mb 81f
8:45am 14 27 mph 1017.6mb 79f
7:45am 12 24 mph 1017.3mb 77f
6:45am 13 25 mph 1016.9mb 75f
6:00am 14
mph
1016.6mb 75f
Wed 07/09 5:50pm 17 27 mph 1015.6mb 75f
4:50pm 17 30 mph 1015.2mb 77f
3:50pm 17 31 mph 1015.6mb 77f
2:50pm 20 30 mph 1015.2mb 82f
1:50pm 21 32 mph 1015.6mb 84f
12:50pm 18 31 mph 1015.9mb 84f
11:50am 17 28 mph 1016.3mb 84f
10:50am 16 27 mph 1016.9mb 84f
9:50am 16 23 mph 1016.9mb 82f
8:51am 15 18 mph 1016.9mb 79f
7:50am 10
mph
1016.3mb 77f
6:50am 12
mph
1016.6mb 75f
6:01am 8
mph
1015.9mb 73f
Tue 07/08 5:45pm 16 23 mph 1014.9mb 81f
4:45pm 13 24 mph 1014.9mb 79f
3:45pm 17 23 mph 1015.2mb 84f
2:45pm 17 23 mph 1015.2mb 86f
1:50pm 20 24 mph 1015.6mb 75f